Time;durP1;ratioP1;P1;durP2;ratioP2;P2;SDS_P1;SDS_P2;PMS_P1;PMS_P2;Temp;Humidity;BMP_temperature;BMP_pressure;BME280_temperature;BME280_humidity;BME280_pressure;Samples;Min_cycle;Max_cycle;Signal;HPM_P1;HPM_P2
2023/03/19 00:00:47;;;;;;;3.90;3.50;;;13.80;99.90;;;;;;5071195;28;20470;-70
2023/03/19 00:03:13;;;;;;;3.73;3.30;;;13.70;99.90;;;;;;5053109;28;20464;-70
2023/03/19 00:05:39;;;;;;;4.50;3.20;;;13.70;99.90;;;;;;5071084;28;20783;-70
2023/03/19 00:08:05;;;;;;;7.77;3.90;;;13.70;99.90;;;;;;5070802;28;20453;-70
2023/03/19 00:10:31;;;;;;;5.40;3.80;;;13.70;99.90;;;;;;5052970;28;20438;-70
2023/03/19 00:12:57;;;;;;;6.10;3.70;;;13.70;99.90;;;;;;5053392;28;20469;-70
2023/03/19 00:15:23;;;;;;;5.00;3.60;;;13.70;99.90;;;;;;5073036;28;20414;-70
2023/03/19 00:17:49;;;;;;;3.90;3.50;;;13.70;99.90;;;;;;5040334;28;20436;-70
2023/03/19 00:20:21;;;;;;;5.20;4.37;;;13.70;99.90;;;;;;5040472;28;21009;-70
2023/03/19 00:22:46;;;;;;;4.77;3.90;;;13.70;99.90;;;;;;5056683;28;20466;-70
2023/03/19 00:25:13;;;;;;;4.40;3.47;;;13.70;99.90;;;;;;5039058;28;20498;-71
2023/03/19 00:27:43;;;;;;;6.97;3.87;;;13.70;99.90;;;;;;5040093;28;20212;-70
2023/03/19 00:30:10;;;;;;;5.37;3.33;;;13.70;99.90;;;;;;5073354;28;20552;-70
2023/03/19 00:32:36;;;;;;;6.20;3.80;;;13.70;99.90;;;;;;5039836;28;20394;-70
2023/03/19 00:35:05;;;;;;;3.83;2.80;;;13.70;99.90;;;;;;5040233;28;20419;-70
2023/03/19 00:37:35;;;;;;;5.97;3.67;;;13.60;99.90;;;;;;5056142;28;20932;-71
2023/03/19 00:40:01;;;;;;;5.27;3.17;;;13.60;99.90;;;;;;5056570;28;20520;-70
2023/03/19 00:42:27;;;;;;;4.10;3.53;;;13.60;99.90;;;;;;5056572;28;20445;-70
2023/03/19 00:44:55;;;;;;;3.90;3.47;;;13.60;99.90;;;;;;5073962;28;20961;-70
2023/03/19 00:47:23;;;;;;;4.40;3.70;;;13.60;99.90;;;;;;5056342;28;20447;-70
2023/03/19 00:49:52;;;;;;;6.43;3.50;;;13.60;99.90;;;;;;5039790;28;20438;-70
2023/03/19 00:52:18;;;;;;;3.87;3.10;;;13.60;99.90;;;;;;5052419;28;20443;-70
2023/03/19 00:54:44;;;;;;;4.03;3.37;;;13.60;99.90;;;;;;5021913;28;20437;-70
2023/03/19 00:57:15;;;;;;;3.57;3.20;;;13.60;99.90;;;;;;5074361;28;20415;-70
2023/03/19 00:59:43;;;;;;;5.60;2.87;;;13.60;99.90;;;;;;5040036;28;20452;-70
2023/03/19 01:02:11;;;;;;;5.27;3.00;;;13.60;99.90;;;;;;5056230;28;20465;-70
2023/03/19 01:04:37;;;;;;;3.47;3.10;;;13.60;99.90;;;;;;5056210;28;20438;-70
2023/03/19 01:07:03;;;;;;;5.03;2.67;;;13.60;99.90;;;;;;5056361;28;20938;-70
2023/03/19 01:09:29;;;;;;;3.20;2.90;;;13.50;99.90;;;;;;5073339;28;20460;-70
2023/03/19 01:12:03;;;;;;;3.93;3.40;;;13.50;99.90;;;;;;5039146;28;20465;-70
2023/03/19 01:14:30;;;;;;;5.47;3.23;;;13.50;99.90;;;;;;5056103;28;20482;-70
2023/03/19 01:16:57;;;;;;;3.67;2.93;;;13.50;99.90;;;;;;5039519;28;20741;-70
2023/03/19 01:19:23;;;;;;;4.20;3.10;;;13.50;99.90;;;;;;5039259;28;20455;-71
2023/03/19 01:21:49;;;;;;;3.63;3.10;;;13.50;99.90;;;;;;5055916;28;20403;-71
2023/03/19 01:24:19;;;;;;;4.70;3.27;;;13.50;99.90;;;;;;5037646;28;20459;-70
2023/03/19 01:26:50;;;;;;;4.53;3.63;;;13.50;99.90;;;;;;5020057;28;20545;-70
2023/03/19 01:29:24;;;;;;;4.47;3.27;;;13.50;99.90;;;;;;5035569;28;20777;-70
2023/03/19 01:31:53;;;;;;;4.50;4.00;;;13.40;99.90;;;;;;5035822;28;20413;-70
2023/03/19 01:34:31;;;;;;;3.37;2.90;;;13.50;99.90;;;;;;5051992;28;20444;-70
2023/03/19 01:37:08;;;;;;;5.57;3.40;;;13.40;99.90;;;;;;5037056;28;20506;-70
2023/03/19 01:39:34;;;;;;;7.00;3.20;;;13.40;99.90;;;;;;5053427;28;20426;-70
2023/03/19 01:42:04;;;;;;;4.00;3.20;;;13.40;99.90;;;;;;5035692;28;20404;-70
2023/03/19 01:44:40;;;;;;;3.80;2.87;;;13.40;99.90;;;;;;5018922;28;20556;-70
2023/03/19 01:47:37;;;;;;;4.87;3.57;;;13.40;99.90;;;;;;5018971;28;20455;-71
2023/03/19 01:50:24;;;;;;;5.30;3.57;;;13.40;99.90;;;;;;5051948;28;20528;-70
2023/03/19 01:53:00;;;;;;;4.27;3.30;;;13.40;99.90;;;;;;5029402;28;20460;-70
2023/03/19 01:55:33;;;;;;;3.27;2.73;;;13.40;99.90;;;;;;5047764;28;20443;-70
2023/03/19 01:58:20;;;;;;;5.73;3.03;;;13.30;99.90;;;;;;5052490;28;20459;-70
2023/03/19 02:01:19;;;;;;;5.70;3.50;;;13.30;99.90;;;;;;5039760;28;20411;-71
2023/03/19 02:03:52;;;;;;;4.60;3.17;;;13.30;99.90;;;;;;5034788;28;20485;-70
2023/03/19 02:06:29;;;;;;;5.10;3.67;;;13.30;99.90;;;;;;5035076;28;20404;-70
2023/03/19 02:08:58;;;;;;;4.30;2.80;;;13.30;99.90;;;;;;5035652;28;20779;-70
2023/03/19 02:11:25;;;;;;;4.77;3.43;;;13.30;99.90;;;;;;5002031;28;20452;-70
2023/03/19 02:13:51;;;;;;;3.63;2.60;;;13.30;99.90;;;;;;5035070;28;20415;-70
2023/03/19 02:16:18;;;;;;;3.80;2.90;;;13.30;99.90;;;;;;5034906;28;20414;-70
2023/03/19 02:18:44;;;;;;;4.27;3.37;;;13.30;99.90;;;;;;5052347;28;20448;-70
2023/03/19 02:21:17;;;;;;;3.93;3.10;;;13.30;99.90;;;;;;5002108;28;20444;-70
2023/03/19 02:24:03;;;;;;;3.50;3.20;;;13.30;99.90;;;;;;5051687;28;20988;-70
2023/03/19 02:27:00;;;;;;;4.27;3.87;;;13.30;99.90;;;;;;5025607;28;20426;-70
2023/03/19 02:29:27;;;;;;;3.53;2.80;;;13.20;99.90;;;;;;5021172;28;20451;-70
2023/03/19 02:31:56;;;;;;;4.73;3.37;;;13.20;99.90;;;;;;5053844;28;20435;-70
2023/03/19 02:34:22;;;;;;;3.53;3.23;;;13.20;99.90;;;;;;5054443;28;20432;-70
2023/03/19 02:36:54;;;;;;;4.97;3.40;;;13.20;99.90;;;;;;5054229;28;20766;-70
2023/03/19 02:39:31;;;;;;;6.53;3.07;;;13.20;99.90;;;;;;5036504;28;20456;-70
2023/03/19 02:41:59;;;;;;;3.83;3.20;;;13.20;99.90;;;;;;5037730;28;20409;-70
2023/03/19 02:44:26;;;;;;;3.67;3.10;;;13.20;99.90;;;;;;5054288;28;20468;-70
2023/03/19 02:46:52;;;;;;;4.43;3.03;;;13.20;99.90;;;;;;5072235;28;20441;-70
2023/03/19 02:49:23;;;;;;;4.67;3.70;;;13.20;99.90;;;;;;5054021;28;20430;-70
2023/03/19 02:51:50;;;;;;;5.57;3.10;;;13.20;99.90;;;;;;5071228;28;20398;-70
2023/03/19 02:54:16;;;;;;;4.27;3.40;;;13.20;99.90;;;;;;5037517;28;20412;-70
2023/03/19 02:56:42;;;;;;;5.33;2.83;;;13.20;99.90;;;;;;5054065;28;20454;-70
2023/03/19 02:59:10;;;;;;;6.50;2.90;;;13.20;99.90;;;;;;5043987;28;20435;-70
2023/03/19 03:01:36;;;;;;;5.00;3.40;;;13.20;99.90;;;;;;5034143;28;20410;-70
2023/03/19 03:04:03;;;;;;;3.13;2.83;;;13.20;99.90;;;;;;5034177;28;20445;-70
2023/03/19 03:06:29;;;;;;;5.57;3.20;;;13.10;99.90;;;;;;5050275;28;20501;-70
2023/03/19 03:08:56;;;;;;;2.90;2.70;;;13.10;99.90;;;;;;5051382;28;20491;-70
2023/03/19 03:11:21;;;;;;;5.47;3.17;;;13.10;99.90;;;;;;5034120;28;20838;-70
2023/03/19 03:13:47;;;;;;;4.00;3.47;;;13.10;99.90;;;;;;5034167;28;20497;-70
2023/03/19 03:16:14;;;;;;;4.73;2.80;;;13.10;99.90;;;;;;5033839;28;20427;-70
2023/03/19 03:18:41;;;;;;;4.13;3.00;;;13.10;99.90;;;;;;5033813;28;20451;-70
2023/03/19 03:21:10;;;;;;;3.87;3.00;;;13.10;99.90;;;;;;5017527;28;20429;-71
2023/03/19 03:23:36;;;;;;;3.20;2.77;;;13.10;99.90;;;;;;5032678;28;20647;-70
2023/03/19 03:26:02;;;;;;;4.00;3.40;;;13.10;99.90;;;;;;5070852;28;20474;-71
2023/03/19 03:28:28;;;;;;;5.07;3.83;;;13.10;99.90;;;;;;5046485;28;20484;-70
2023/03/19 03:31:01;;;;;;;4.43;3.30;;;13.10;99.90;;;;;;5017586;28;20415;-70
2023/03/19 03:33:29;;;;;;;4.60;3.17;;;13.10;99.90;;;;;;5052288;28;20533;-70
2023/03/19 03:35:56;;;;;;;5.63;3.50;;;13.10;99.90;;;;;;5052885;28;20455;-70
2023/03/19 03:38:24;;;;;;;4.90;3.00;;;13.00;99.90;;;;;;5055172;28;20850;-70
2023/03/19 03:40:53;;;;;;;3.50;2.80;;;13.00;99.90;;;;;;5054137;28;20526;-70
2023/03/19 03:43:23;;;;;;;3.53;2.90;;;13.10;99.90;;;;;;5054477;28;20543;-71
2023/03/19 03:45:49;;;;;;;4.30;3.10;;;13.00;99.90;;;;;;5054539;28;20921;-70
2023/03/19 03:48:18;;;;;;;3.70;3.10;;;13.00;99.90;;;;;;5037879;28;20950;-70
2023/03/19 03:50:44;;;;;;;4.03;3.00;;;13.00;99.90;;;;;;5057060;28;20429;-70
2023/03/19 03:53:14;;;;;;;5.17;3.27;;;13.00;99.90;;;;;;5058296;28;20395;-70
2023/03/19 03:55:43;;;;;;;4.37;3.57;;;13.00;99.90;;;;;;5041656;28;20535;-70
2023/03/19 03:58:11;;;;;;;4.00;3.60;;;13.00;99.90;;;;;;5054883;28;20663;-70
2023/03/19 04:00:40;;;;;;;6.63;4.03;;;13.00;99.90;;;;;;5021707;28;20450;-71
2023/03/19 04:03:09;;;;;;;3.77;3.37;;;13.00;99.90;;;;;;5048723;28;20937;-70
2023/03/19 04:05:36;;;;;;;4.20;3.20;;;13.00;99.90;;;;;;5058331;28;20434;-70
2023/03/19 04:08:03;;;;;;;5.80;3.80;;;13.00;99.90;;;;;;5025479;28;20410;-70
2023/03/19 04:10:30;;;;;;;3.87;3.23;;;13.00;99.90;;;;;;5057636;28;20490;-70
2023/03/19 04:13:03;;;;;;;3.87;3.00;;;13.00;99.90;;;;;;5074850;28;20433;-70
2023/03/19 04:15:36;;;;;;;3.30;3.00;;;13.00;99.90;;;;;;5057827;28;20497;-70
2023/03/19 04:18:02;;;;;;;4.80;3.10;;;13.00;99.90;;;;;;5057610;28;20444;-70
2023/03/19 04:20:29;;;;;;;4.20;3.27;;;12.90;99.90;;;;;;5057434;28;20455;-70
2023/03/19 04:22:57;;;;;;;3.83;3.20;;;12.90;99.90;;;;;;5057262;28;21051;-70
2023/03/19 04:25:23;;;;;;;4.63;3.33;;;12.90;99.90;;;;;;5040969;28;20430;-70
2023/03/19 04:27:52;;;;;;;5.37;3.10;;;12.90;99.90;;;;;;5041223;28;20401;-70
2023/03/19 04:30:19;;;;;;;4.53;3.40;;;12.90;99.90;;;;;;5041143;28;20717;-70
2023/03/19 04:32:48;;;;;;;3.50;2.90;;;12.90;99.90;;;;;;5024706;28;20869;-70
2023/03/19 04:35:20;;;;;;;3.87;3.23;;;12.90;99.90;;;;;;5057782;28;20413;-70
2023/03/19 04:37:51;;;;;;;4.43;3.43;;;12.90;99.90;;;;;;5057616;28;20434;-70
2023/03/19 04:40:28;;;;;;;4.73;3.30;;;12.90;99.90;;;;;;5057404;28;20444;-70
2023/03/19 04:42:56;;;;;;;3.90;3.10;;;12.90;99.90;;;;;;5057871;28;20460;-70
2023/03/19 04:45:30;;;;;;;3.17;2.83;;;12.90;99.90;;;;;;5047188;28;20486;-70
2023/03/19 04:48:00;;;;;;;4.53;3.40;;;12.90;99.90;;;;;;5037955;28;20408;-70
2023/03/19 04:50:29;;;;;;;5.50;3.20;;;12.90;99.90;;;;;;5028339;28;20443;-70
2023/03/19 04:52:58;;;;;;;4.17;2.97;;;12.90;99.90;;;;;;5057217;28;20398;-70
2023/03/19 04:55:26;;;;;;;4.40;2.93;;;12.90;99.90;;;;;;5057370;28;20399;-70
2023/03/19 04:58:05;;;;;;;3.30;2.90;;;12.90;99.90;;;;;;5057254;28;20419;-70
2023/03/19 05:00:36;;;;;;;5.00;3.20;;;12.90;99.90;;;;;;5027136;28;20538;-70
2023/03/19 05:03:06;;;;;;;5.57;3.50;;;12.80;99.90;;;;;;5021483;28;20463;-71
2023/03/19 05:05:35;;;;;;;3.80;3.03;;;12.80;99.90;;;;;;5020916;28;20396;-70
2023/03/19 05:08:07;;;;;;;5.20;3.57;;;12.80;99.90;;;;;;5020976;28;20837;-70
2023/03/19 05:10:34;;;;;;;3.80;2.80;;;12.80;99.90;;;;;;5036622;28;20953;-70
2023/03/19 05:13:03;;;;;;;3.70;2.80;;;12.80;99.90;;;;;;5020657;28;20993;-70
2023/03/19 05:15:31;;;;;;;4.33;2.67;;;12.80;99.90;;;;;;5054605;28;20442;-70
2023/03/19 05:18:04;;;;;;;3.43;2.67;;;12.80;99.90;;;;;;5036640;28;20404;-69
2023/03/19 05:20:38;;;;;;;4.20;3.00;;;12.80;99.90;;;;;;5034238;28;20487;-70
2023/03/19 05:23:12;;;;;;;3.67;2.60;;;12.80;99.90;;;;;;5040778;28;20455;-70
2023/03/19 05:25:43;;;;;;;8.17;2.47;;;12.80;99.90;;;;;;5074238;28;20475;-70
2023/03/19 05:28:16;;;;;;;2.93;2.63;;;12.80;99.90;;;;;;5036731;28;20438;-70
2023/03/19 05:30:43;;;;;;;6.63;3.00;;;12.80;99.90;;;;;;5020178;28;20455;-70
2023/03/19 05:33:17;;;;;;;3.67;3.10;;;12.80;99.90;;;;;;5036571;28;20397;-70
2023/03/19 05:35:48;;;;;;;4.20;2.70;;;12.80;99.90;;;;;;5037163;28;20403;-70
2023/03/19 05:38:22;;;;;;;5.40;3.20;;;12.80;99.90;;;;;;5036913;28;20425;-70
2023/03/19 05:40:55;;;;;;;3.63;2.50;;;12.80;99.90;;;;;;5036106;28;20473;-70
2023/03/19 05:43:28;;;;;;;3.23;2.70;;;12.80;99.90;;;;;;5004511;28;20470;-70
2023/03/19 05:46:02;;;;;;;3.60;2.77;;;12.80;99.90;;;;;;5021004;28;20404;-70
2023/03/19 05:48:34;;;;;;;4.30;2.80;;;12.80;99.90;;;;;;5036280;28;20465;-71
2023/03/19 05:51:10;;;;;;;2.50;2.30;;;12.80;99.90;;;;;;5004506;28;20449;-70
2023/03/19 05:53:40;;;;;;;3.40;2.73;;;12.80;99.90;;;;;;5043548;28;20428;-70
2023/03/19 05:56:28;;;;;;;3.67;2.97;;;12.80;99.90;;;;;;5056178;28;20452;-70
2023/03/19 05:59:16;;;;;;;3.20;2.70;;;12.70;99.90;;;;;;5039233;28;20444;-70
2023/03/19 06:01:48;;;;;;;4.17;2.70;;;12.80;99.90;;;;;;5039668;28;20428;-70
2023/03/19 06:04:19;;;;;;;3.90;2.43;;;12.70;99.90;;;;;;5023288;28;20457;-70
2023/03/19 06:06:48;;;;;;;3.20;2.67;;;12.70;99.90;;;;;;5056454;28;20416;-70
2023/03/19 06:09:14;;;;;;;4.53;2.53;;;12.70;99.90;;;;;;5055748;28;20431;-70
2023/03/19 06:11:44;;;;;;;3.70;2.90;;;12.70;99.90;;;;;;5055190;28;20442;-70
2023/03/19 06:14:28;;;;;;;2.93;2.60;;;12.70;99.90;;;;;;5073618;28;20409;-70
2023/03/19 06:17:36;;;;;;;3.80;2.50;;;12.70;99.90;;;;;;5011757;28;20869;-70
2023/03/19 06:20:05;;;;;;;3.37;2.23;;;12.70;99.90;;;;;;4979105;28;20472;-70
2023/03/19 06:22:31;;;;;;;3.33;2.90;;;12.70;99.90;;;;;;5019388;28;20546;-70
2023/03/19 06:25:00;;;;;;;4.93;2.67;;;12.70;99.90;;;;;;5055458;28;20892;-70
2023/03/19 06:27:26;;;;;;;4.73;3.00;;;12.70;99.90;;;;;;5055598;28;20426;-70
2023/03/19 06:30:01;;;;;;;3.40;2.23;;;12.70;99.90;;;;;;5038400;28;21111;-70
2023/03/19 06:32:33;;;;;;;3.37;2.20;;;12.70;99.90;;;;;;5039044;28;20503;-70
2023/03/19 06:35:09;;;;;;;3.50;2.50;;;12.70;99.90;;;;;;5055687;28;20426;-70
2023/03/19 06:37:36;;;;;;;2.50;2.30;;;12.70;99.90;;;;;;5038993;28;20421;-70
2023/03/19 06:40:05;;;;;;;4.27;2.70;;;12.70;99.90;;;;;;5055129;28;20499;-70
2023/03/19 06:42:38;;;;;;;6.80;2.60;;;12.70;99.90;;;;;;5055217;28;20920;-70
2023/03/19 06:45:06;;;;;;;2.40;2.13;;;12.70;99.90;;;;;;5038665;28;20430;-70
2023/03/19 06:47:35;;;;;;;5.30;2.67;;;12.70;99.90;;;;;;5072986;28;20400;-70
2023/03/19 06:50:03;;;;;;;3.73;2.33;;;12.70;99.90;;;;;;5038874;28;20489;-70
2023/03/19 06:52:30;;;;;;;6.20;2.57;;;12.70;99.90;;;;;;5038407;28;20468;-70
2023/03/19 06:54:58;;;;;;;4.13;2.20;;;12.70;99.90;;;;;;5055357;28;20499;-70
2023/03/19 06:57:29;;;;;;;3.17;2.33;;;12.70;99.90;;;;;;5072926;28;20527;-71
2023/03/19 06:59:55;;;;;;;5.43;2.27;;;12.70;99.90;;;;;;5035006;28;20453;-70
2023/03/19 07:02:25;;;;;;;3.00;2.40;;;12.70;99.90;;;;;;5035143;28;20406;-70
2023/03/19 07:04:51;;;;;;;2.90;2.47;;;12.70;99.90;;;;;;5018405;28;20518;-70
2023/03/19 07:07:19;;;;;;;4.53;2.60;;;12.70;99.90;;;;;;5052794;28;20404;-70
2023/03/19 07:09:48;;;;;;;4.93;2.87;;;12.70;99.90;;;;;;5052735;28;20471;-70
2023/03/19 07:12:14;;;;;;;3.70;3.10;;;12.60;99.90;;;;;;5034843;28;20432;-70
2023/03/19 07:14:42;;;;;;;3.10;2.40;;;12.70;99.90;;;;;;5052454;28;20430;-70
2023/03/19 07:17:10;;;;;;;2.60;2.40;;;12.70;99.90;;;;;;5035134;28;20428;-70
2023/03/19 07:19:38;;;;;;;3.20;2.60;;;12.70;99.90;;;;;;5052474;28;20460;-70
2023/03/19 07:22:05;;;;;;;2.83;2.07;;;12.70;99.90;;;;;;5034728;28;20427;-70
2023/03/19 07:24:33;;;;;;;5.33;2.77;;;12.70;99.90;;;;;;5034451;28;20450;-70
2023/03/19 07:27:06;;;;;;;2.87;2.30;;;12.70;99.90;;;;;;5052785;28;20419;-71
2023/03/19 07:29:32;;;;;;;3.20;2.57;;;12.70;99.90;;;;;;5048929;28;20470;-70
2023/03/19 07:31:58;;;;;;;4.57;2.67;;;12.70;99.90;;;;;;5037944;28;20798;-70
2023/03/19 07:34:27;;;;;;;4.03;2.17;;;12.70;99.90;;;;;;5050833;28;20917;-70
2023/03/19 07:36:53;;;;;;;2.40;2.20;;;12.70;99.90;;;;;;5034819;28;20481;-70
2023/03/19 07:39:19;;;;;;;3.00;2.70;;;12.70;99.90;;;;;;5034467;28;20867;-70
2023/03/19 07:41:52;;;;;;;3.50;2.13;;;12.70;99.90;;;;;;5035024;28;20415;-70
2023/03/19 07:44:21;;;;;;;3.77;2.70;;;12.70;99.90;;;;;;5034328;28;20475;-70
2023/03/19 07:46:49;;;;;;;4.37;2.50;;;12.70;99.90;;;;;;5034655;28;20514;-70
2023/03/19 07:49:15;;;;;;;3.03;2.83;;;12.70;99.90;;;;;;5051788;28;20515;-70
2023/03/19 07:51:45;;;;;;;3.80;2.20;;;12.70;99.90;;;;;;5018048;28;20453;-71
2023/03/19 07:54:14;;;;;;;2.40;1.83;;;12.70;99.90;;;;;;5034286;28;20429;-70
2023/03/19 07:56:39;;;;;;;2.90;2.43;;;12.70;99.90;;;;;;5034417;28;20453;-70
2023/03/19 07:59:06;;;;;;;3.17;2.30;;;12.70;99.90;;;;;;5034002;28;20534;-70
2023/03/19 08:01:32;;;;;;;2.87;2.00;;;12.70;99.90;;;;;;5017579;28;20475;-70
2023/03/19 08:03:57;;;;;;;2.93;2.60;;;12.70;99.90;;;;;;5052033;28;20818;-70
2023/03/19 08:06:23;;;;;;;3.23;2.70;;;12.70;99.90;;;;;;5017763;28;20412;-70
2023/03/19 08:08:49;;;;;;;3.73;2.33;;;12.70;99.90;;;;;;5051931;28;20491;-70
2023/03/19 08:11:21;;;;;;;3.37;2.70;;;12.70;99.90;;;;;;5034695;28;20422;-70
2023/03/19 08:13:49;;;;;;;3.23;2.30;;;12.70;99.90;;;;;;5034536;28;20569;-70
2023/03/19 08:16:15;;;;;;;3.13;2.43;;;12.70;99.90;;;;;;5052159;28;20485;-70
2023/03/19 08:18:44;;;;;;;2.63;2.27;;;12.70;99.90;;;;;;5017894;28;20463;-70
2023/03/19 08:21:10;;;;;;;2.97;2.30;;;12.70;99.90;;;;;;5063957;28;20430;-71
2023/03/19 08:23:38;;;;;;;2.73;2.30;;;12.70;99.90;;;;;;5071902;28;20554;-70
2023/03/19 08:26:07;;;;;;;2.60;2.40;;;12.70;99.90;;;;;;5054817;28;20505;-70
2023/03/19 08:28:33;;;;;;;4.13;2.10;;;12.70;99.90;;;;;;5050382;28;20581;-70
2023/03/19 08:31:08;;;;;;;3.47;2.40;;;12.70;99.90;;;;;;5017776;28;20505;-71
2023/03/19 08:33:37;;;;;;;2.17;1.97;;;12.70;99.90;;;;;;5034543;28;20416;-70
2023/03/19 08:36:14;;;;;;;3.53;2.30;;;12.70;99.90;;;;;;5019135;28;20491;-70
2023/03/19 08:38:45;;;;;;;4.53;2.80;;;12.70;99.90;;;;;;5037577;28;20438;-70
2023/03/19 08:41:11;;;;;;;3.40;2.70;;;12.70;99.90;;;;;;5055694;28;20402;-71
2023/03/19 08:43:39;;;;;;;5.50;2.50;;;12.70;99.90;;;;;;5052391;28;20819;-70
2023/03/19 08:46:05;;;;;;;3.03;2.23;;;12.70;99.90;;;;;;5075297;28;20399;-70
2023/03/19 08:48:31;;;;;;;2.90;2.47;;;12.70;99.90;;;;;;5073853;28;20411;-70
2023/03/19 08:51:01;;;;;;;2.63;2.20;;;12.70;99.90;;;;;;5057458;28;20762;-70
2023/03/19 08:53:30;;;;;;;3.73;3.00;;;12.70;99.90;;;;;;5057185;28;20979;-70
2023/03/19 08:56:01;;;;;;;3.37;2.57;;;12.70;99.90;;;;;;5037066;28;20880;-70
2023/03/19 08:58:30;;;;;;;3.30;2.73;;;12.70;99.90;;;;;;5037101;28;20418;-71
2023/03/19 09:01:04;;;;;;;2.90;2.43;;;12.70;99.90;;;;;;5053693;28;20963;-70
2023/03/19 09:03:30;;;;;;;2.63;2.40;;;12.70;99.90;;;;;;5020774;28;20557;-70
2023/03/19 09:06:00;;;;;;;4.60;2.67;;;12.70;99.90;;;;;;5021110;28;20419;-70
2023/03/19 09:08:27;;;;;;;2.93;2.50;;;12.70;99.90;;;;;;5036942;28;20427;-70
2023/03/19 09:10:59;;;;;;;2.70;2.30;;;12.80;99.90;;;;;;5037141;28;20524;-70
2023/03/19 09:13:30;;;;;;;2.77;2.20;;;12.80;99.90;;;;;;5037324;28;20488;-70
2023/03/19 09:16:01;;;;;;;3.73;2.73;;;12.80;99.90;;;;;;5037048;28;20465;-70
2023/03/19 09:18:32;;;;;;;3.00;2.70;;;12.80;99.90;;;;;;5036814;28;20470;-70
2023/03/19 09:21:00;;;;;;;2.90;2.70;;;12.80;99.90;;;;;;5020441;28;20459;-70
2023/03/19 09:23:29;;;;;;;3.53;3.00;;;12.80;99.90;;;;;;5054406;28;20905;-70
2023/03/19 09:25:55;;;;;;;3.20;2.90;;;12.80;99.90;;;;;;5054437;28;20406;-70
2023/03/19 09:28:21;;;;;;;7.57;3.30;;;12.80;99.90;;;;;;5054329;28;20759;-70
2023/03/19 09:30:52;;;;;;;2.70;2.50;;;12.80;99.90;;;;;;5072062;28;20461;-71
2023/03/19 09:33:21;;;;;;;4.73;3.00;;;12.80;99.90;;;;;;5056597;28;20526;-70
2023/03/19 09:35:51;;;;;;;2.60;2.40;;;12.80;99.90;;;;;;5056572;28;20887;-70
2023/03/19 09:38:21;;;;;;;2.97;2.20;;;12.90;99.90;;;;;;5056021;28;20829;-70
2023/03/19 09:40:58;;;;;;;5.60;2.20;;;12.90;99.90;;;;;;5056151;28;20403;-70
2023/03/19 09:43:46;;;;;;;3.33;3.03;;;12.90;99.90;;;;;;5074099;28;20975;-70
2023/03/19 09:46:20;;;;;;;2.67;2.47;;;12.90;99.90;;;;;;5055771;28;20398;-70
2023/03/19 09:49:04;;;;;;;3.70;2.70;;;12.90;99.90;;;;;;5073955;28;20435;-70
2023/03/19 09:51:44;;;;;;;3.00;2.70;;;12.90;99.90;;;;;;5055759;28;20888;-70
2023/03/19 09:54:25;;;;;;;3.17;2.87;;;12.90;99.90;;;;;;5073329;28;20448;-70
2023/03/19 09:56:56;;;;;;;3.60;2.80;;;12.90;99.90;;;;;;5056635;28;20418;-70
2023/03/19 09:59:30;;;;;;;5.73;2.60;;;12.90;99.90;;;;;;5056427;28;20458;-70
2023/03/19 10:02:18;;;;;;;4.50;2.87;;;12.90;99.90;;;;;;5055819;28;20450;-70
2023/03/19 10:05:06;;;;;;;3.60;3.30;;;12.90;99.90;;;;;;5072726;28;20482;-70
2023/03/19 10:07:35;;;;;;;3.50;3.20;;;12.90;99.90;;;;;;5022855;28;20504;-70
2023/03/19 10:10:36;;;;;;;3.73;3.43;;;13.00;99.90;;;;;;5055853;28;20442;-70
2023/03/19 10:13:38;;;;;;;5.10;3.83;;;13.00;99.90;;;;;;5039577;28;20813;-70
2023/03/19 10:16:09;;;;;;;5.57;3.13;;;13.00;99.90;;;;;;5039232;28;20448;-70
2023/03/19 10:18:38;;;;;;;4.40;3.27;;;13.00;99.90;;;;;;5055529;28;20433;-70
2023/03/19 10:21:15;;;;;;;3.37;3.07;;;13.00;99.90;;;;;;5055676;28;20430;-70
2023/03/19 10:23:43;;;;;;;3.47;3.17;;;13.00;99.90;;;;;;5067146;28;20562;-71
2023/03/19 10:26:16;;;;;;;3.43;2.90;;;13.00;99.90;;;;;;5035469;28;20435;-70
2023/03/19 10:28:54;;;;;;;4.43;3.83;;;13.00;99.90;;;;;;5035535;28;20477;-70
2023/03/19 10:31:23;;;;;;;5.00;4.50;;;13.00;99.90;;;;;;5056253;28;20452;-71
2023/03/19 10:34:21;;;;;;;4.07;3.73;;;13.00;99.90;;;;;;5072977;28;20483;-70
2023/03/19 10:36:47;;;;;;;4.53;4.13;;;13.00;99.90;;;;;;5032160;28;21023;-70
2023/03/19 10:39:18;;;;;;;4.70;3.80;;;13.00;99.90;;;;;;5055446;28;20526;-70
2023/03/19 10:41:48;;;;;;;6.73;4.10;;;13.00;99.90;;;;;;5038731;28;20507;-71
2023/03/19 10:44:33;;;;;;;3.97;3.57;;;13.00;99.90;;;;;;5038692;28;20477;-71
2023/03/19 10:47:12;;;;;;;4.67;3.43;;;13.00;99.90;;;;;;5072456;28;20790;-70
2023/03/19 10:49:39;;;;;;;4.40;4.00;;;13.00;99.90;;;;;;5038047;28;20472;-70
2023/03/19 10:52:44;;;;;;;2.90;2.43;;;13.00;99.90;;;;;;5034816;28;20426;-70
2023/03/19 10:55:16;;;;;;;3.77;3.37;;;13.00;99.90;;;;;;5051000;28;20429;-70
2023/03/19 10:57:47;;;;;;;3.57;3.27;;;13.00;99.90;;;;;;5035031;28;20407;-70
2023/03/19 11:00:21;;;;;;;3.33;3.03;;;13.00;99.90;;;;;;5052515;28;21018;-71
2023/03/19 11:02:55;;;;;;;3.57;3.20;;;13.00;99.90;;;;;;5040515;28;20434;-70
2023/03/19 11:05:20;;;;;;;2.93;2.67;;;13.00;99.90;;;;;;5054970;28;20489;-71
2023/03/19 11:07:54;;;;;;;3.90;3.37;;;13.00;99.90;;;;;;5055288;28;20789;-70
2023/03/19 11:10:23;;;;;;;3.23;2.93;;;13.00;99.90;;;;;;5055018;28;20455;-71
2023/03/19 11:12:57;;;;;;;3.00;2.80;;;13.00;99.90;;;;;;5054798;28;20402;-70
2023/03/19 11:15:28;;;;;;;3.23;2.90;;;13.00;99.90;;;;;;5072358;28;20393;-70
2023/03/19 11:18:00;;;;;;;3.73;3.13;;;13.00;99.90;;;;;;5050706;28;20406;-70
2023/03/19 11:20:40;;;;;;;3.30;2.47;;;13.00;99.90;;;;;;5021756;28;20447;-71
2023/03/19 11:23:15;;;;;;;2.70;2.50;;;13.00;99.90;;;;;;5016721;28;20389;-71
2023/03/19 11:25:51;;;;;;;3.30;2.83;;;13.00;99.90;;;;;;5067403;28;20439;-71
2023/03/19 11:28:20;;;;;;;2.53;2.17;;;13.00;99.90;;;;;;5048442;28;20550;-71
2023/03/19 11:31:04;;;;;;;3.67;2.67;;;13.00;99.90;;;;;;5035089;28;20516;-71
2023/03/19 11:33:51;;;;;;;2.23;2.00;;;13.00;99.90;;;;;;5033859;28;20465;-71
2023/03/19 11:36:40;;;;;;;3.10;2.80;;;13.00;99.90;;;;;;5049478;28;20427;-71
2023/03/19 11:39:31;;;;;;;3.27;2.97;;;13.00;99.90;;;;;;5035770;28;20452;-71
2023/03/19 11:42:05;;;;;;;3.90;3.07;;;13.00;99.90;;;;;;5052044;28;20565;-71
2023/03/19 11:45:02;;;;;;;3.20;2.90;;;13.00;99.90;;;;;;5070104;28;20446;-71
2023/03/19 11:47:42;;;;;;;3.20;2.90;;;13.00;99.90;;;;;;5069918;28;20412;-72
2023/03/19 11:50:41;;;;;;;3.47;3.10;;;13.00;99.90;;;;;;5069061;28;20457;-71
2023/03/19 11:53:18;;;;;;;4.20;3.80;;;13.10;99.90;;;;;;5024748;28;20432;-71
2023/03/19 11:56:00;;;;;;;3.40;2.90;;;13.10;99.90;;;;;;5037740;28;20434;-71
2023/03/19 11:58:57;;;;;;;2.80;2.50;;;13.10;99.90;;;;;;5032951;28;20425;-71
2023/03/19 12:01:43;;;;;;;4.10;2.90;;;13.10;99.90;;;;;;5050779;28;20949;-71
2023/03/19 12:04:34;;;;;;;2.83;2.60;;;13.10;99.90;;;;;;5032810;28;20824;-71
2023/03/19 12:08:02;;;;;;;3.77;3.00;;;13.10;99.90;;;;;;5017024;28;20433;-71
2023/03/19 12:11:02;;;;;;;3.87;3.40;;;13.10;99.90;;;;;;4984131;28;20532;-71
2023/03/19 12:13:36;;;;;;;4.87;3.30;;;13.10;99.90;;;;;;5039908;28;20956;-71
2023/03/19 12:16:32;;;;;;;4.00;3.30;;;13.10;99.90;;;;;;5074699;28;20535;-71
2023/03/19 12:19:10;;;;;;;3.60;3.20;;;13.10;99.90;;;;;;5052811;28;20471;-71
2023/03/19 12:21:39;;;;;;;5.83;4.33;;;13.10;99.90;;;;;;5053156;28;20800;-71
2023/03/19 12:24:14;;;;;;;4.23;3.60;;;13.10;99.90;;;;;;5052783;28;20454;-71
2023/03/19 12:27:12;;;;;;;5.00;4.50;;;13.10;99.90;;;;;;5053004;28;20455;-71
2023/03/19 12:29:42;;;;;;;3.83;3.50;;;13.10;99.90;;;;;;5065042;28;20486;-71
2023/03/19 12:32:37;;;;;;;4.43;4.03;;;13.20;99.90;;;;;;5037235;28;20491;-71
2023/03/19 12:35:15;;;;;;;3.33;3.00;;;13.20;99.90;;;;;;5013466;28;20434;-71
2023/03/19 12:37:58;;;;;;;3.93;3.60;;;13.20;99.90;;;;;;5036321;28;20988;-71
2023/03/19 12:40:42;;;;;;;3.20;2.90;;;13.20;99.90;;;;;;5035943;28;20454;-71
2023/03/19 12:43:32;;;;;;;5.40;3.50;;;13.20;99.90;;;;;;5070124;28;20544;-71
2023/03/19 12:46:30;;;;;;;4.43;4.03;;;13.20;99.90;;;;;;5052346;28;20421;-71
2023/03/19 12:49:09;;;;;;;3.50;3.03;;;13.20;99.90;;;;;;5057094;28;20453;-70
2023/03/19 12:51:40;;;;;;;3.60;3.30;;;13.20;99.90;;;;;;5057179;28;20433;-70
2023/03/19 12:54:20;;;;;;;3.50;3.20;;;13.20;99.90;;;;;;5074189;28;20484;-71
2023/03/19 12:57:15;;;;;;;6.30;3.07;;;13.20;99.90;;;;;;5074403;28;20410;-71
2023/03/19 12:59:48;;;;;;;3.47;2.70;;;13.20;99.90;;;;;;5040100;28;20604;-71
2023/03/19 13:02:50;;;;;;;3.57;3.07;;;13.20;99.90;;;;;;5039936;28;20405;-70
2023/03/19 13:05:46;;;;;;;3.77;2.80;;;13.20;99.90;;;;;;5023141;28;20447;-69
2023/03/19 13:08:33;;;;;;;3.77;3.20;;;13.30;99.90;;;;;;5056667;28;20746;-70
2023/03/19 13:11:05;;;;;;;3.10;2.70;;;13.30;99.90;;;;;;5056671;28;20924;-71
2023/03/19 13:13:57;;;;;;;3.87;3.10;;;13.30;99.90;;;;;;5074445;28;20484;-71
2023/03/19 13:16:38;;;;;;;3.30;2.80;;;13.30;99.90;;;;;;5056740;28;20449;-71